Time;durP1;ratioP1;P1;durP2;ratioP2;P2;SDS_P1;SDS_P2;PMS_P1;PMS_P2;Temp;Humidity;BMP_temperature;BMP_pressure;BME280_temperature;BME280_humidity;BME280_pressure;Samples;Min_cycle;Max_cycle;Signal;HPM_P1;HPM_P2
2022/10/14 00:01:49;;;;;;;;;;;16.80;99.90;;;;;;5070455;28;19977;-80
2022/10/14 00:04:15;;;;;;;;;;;16.70;99.90;;;;;;5088366;28;19919;-80
2022/10/14 00:06:41;;;;;;;;;;;16.70;99.90;;;;;;5087395;28;19916;-80
2022/10/14 00:09:07;;;;;;;;;;;16.80;99.90;;;;;;5087631;28;19915;-80
2022/10/14 00:11:34;;;;;;;;;;;16.80;99.90;;;;;;5069216;28;19913;-80
2022/10/14 00:14:01;;;;;;;;;;;16.80;99.90;;;;;;5089091;28;19908;-80
2022/10/14 00:16:31;;;;;;;;;;;16.80;99.90;;;;;;5088757;28;19909;-80
2022/10/14 00:18:58;;;;;;;;;;;16.70;99.90;;;;;;5087422;28;20050;-81
2022/10/14 00:21:24;;;;;;;;;;;16.70;99.90;;;;;;5088212;28;19919;-79
2022/10/14 00:23:52;;;;;;;;;;;16.70;99.90;;;;;;5091836;28;19916;-80
2022/10/14 00:26:23;;;;;;;;;;;16.70;99.90;;;;;;5093058;28;19913;-82
2022/10/14 00:28:51;;;;;;;;;;;16.60;99.90;;;;;;5092179;28;19916;-81
2022/10/14 00:31:17;;;;;;;;;;;16.60;99.90;;;;;;5075071;28;19908;-81
2022/10/14 00:33:45;;;;;;;;;;;16.60;99.90;;;;;;5098783;28;21200;-79
2022/10/14 00:36:12;;;;;;;;;;;16.60;99.90;;;;;;5113339;28;19893;-80
2022/10/14 00:38:41;;;;;;;;;;;16.60;99.90;;;;;;5113311;28;19908;-79
2022/10/14 00:41:07;;;;;;;;;;;16.60;99.90;;;;;;5100500;28;20218;-81
2022/10/14 00:43:52;;;;;;;;;;;16.60;99.90;;;;;;5092184;28;19969;-80
2022/10/14 00:46:17;;;;;;;;;;;16.60;99.90;;;;;;5092213;28;19915;-82
2022/10/14 00:48:43;;;;;;;;;;;16.60;99.90;;;;;;5091645;28;19908;-80
2022/10/14 00:51:09;;;;;;;;;;;16.60;99.90;;;;;;5092610;28;19912;-80
2022/10/14 00:53:36;;;;;;;;;;;16.60;99.90;;;;;;5092697;28;19915;-80
2022/10/14 00:56:03;;;;;;;;;;;16.60;99.90;;;;;;5092450;28;19909;-79
2022/10/14 00:58:29;;;;;;;;;;;16.60;99.90;;;;;;5073388;28;19912;-80
2022/10/14 01:00:55;;;;;;;;;;;16.50;99.90;;;;;;5091817;28;19912;-79
2022/10/14 01:03:32;;;;;;;;;;;16.50;99.90;;;;;;5094269;28;19939;-80
2022/10/14 01:06:03;;;;;;;;;;;16.50;99.90;;;;;;5078422;28;19904;-80
2022/10/14 01:08:37;;;;;;;;;;;16.40;99.90;;;;;;5096263;28;19925;-80
2022/10/14 01:11:11;;;;;;;;;;;16.40;99.90;;;;;;5090699;28;19940;-79
2022/10/14 01:13:43;;;;;;;;;;;16.40;99.90;;;;;;5097399;28;19919;-79
2022/10/14 01:16:15;;;;;;;;;;;16.40;99.90;;;;;;5089919;28;19913;-79
2022/10/14 01:19:04;;;;;;;;;;;16.40;99.90;;;;;;5071886;28;19958;-79
2022/10/14 01:21:36;;;;;;;;;;;16.40;99.90;;;;;;5083720;28;19909;-80
2022/10/14 01:24:18;;;;;;;;;;;16.40;99.90;;;;;;5091104;28;19912;-79
2022/10/14 01:26:52;;;;;;;;;;;16.30;99.90;;;;;;5090632;28;19908;-79
2022/10/14 01:29:39;;;;;;;;;;;16.30;99.90;;;;;;5090554;28;19908;-80
2022/10/14 01:32:14;;;;;;;;;;;16.30;99.90;;;;;;5090554;28;19909;-79
2022/10/14 01:34:44;;;;;;;;;;;16.30;99.90;;;;;;5104945;28;19968;-79
2022/10/14 01:37:15;;;;;;;;;;;16.20;99.90;;;;;;5109828;28;19912;-79
2022/10/14 01:39:46;;;;;;;;;;;16.20;99.90;;;;;;5109752;28;19908;-79
2022/10/14 01:42:21;;;;;;;;;;;16.20;99.90;;;;;;5110059;28;19908;-79
2022/10/14 01:44:50;;;;;;;;;;;16.30;99.90;;;;;;5074429;28;19994;-80
2022/10/14 01:47:18;;;;;;;;;;;16.20;99.90;;;;;;5111233;28;19908;-79
2022/10/14 01:49:47;;;;;;;;;;;16.30;99.90;;;;;;5090975;28;19976;-79
2022/10/14 01:52:15;;;;;;;;;;;16.30;99.90;;;;;;5089616;28;19912;-79
2022/10/14 01:54:42;;;;;;;;;;;16.30;99.90;;;;;;5090060;28;19909;-79
2022/10/14 01:57:10;;;;;;;;;;;16.20;99.90;;;;;;5089120;28;19909;-79
2022/10/14 01:59:37;;;;;;;;;;;16.30;99.90;;;;;;5089414;28;19909;-79
2022/10/14 02:02:03;;;;;;;;;;;16.30;99.90;;;;;;5088484;28;19916;-79
2022/10/14 02:04:29;;;;;;;;;;;16.30;99.90;;;;;;5090307;28;19912;-80
2022/10/14 02:06:54;;;;;;;;;;;16.30;99.90;;;;;;5089018;28;19917;-79
2022/10/14 02:09:39;;;;;;;;;;;16.30;99.90;;;;;;5089405;28;19908;-80
2022/10/14 02:12:04;;;;;;;;;;;16.30;99.90;;;;;;5089085;28;19908;-79
2022/10/14 02:14:30;;;;;;;;;;;16.30;99.90;;;;;;5089723;28;19928;-79
2022/10/14 02:17:00;;;;;;;;;;;16.30;99.90;;;;;;5090721;28;19951;-80
2022/10/14 02:19:26;;;;;;;;;;;16.30;99.90;;;;;;5090773;28;19913;-80
2022/10/14 02:22:00;;;;;;;;;;;16.30;99.90;;;;;;5090931;28;19908;-80
2022/10/14 02:24:26;;;;;;;;;;;16.40;99.90;;;;;;5090254;28;19913;-79
2022/10/14 02:26:54;;;;;;;;;;;16.40;99.90;;;;;;5090515;28;19908;-81
2022/10/14 02:29:21;;;;;;;;;;;16.30;99.90;;;;;;5089793;28;19915;-80
2022/10/14 02:31:47;;;;;;;;;;;16.30;99.90;;;;;;5090198;28;19930;-80
2022/10/14 02:34:15;;;;;;;;;;;16.30;99.90;;;;;;5100072;28;19993;-80
2022/10/14 02:36:41;;;;;;;;;;;16.20;99.90;;;;;;5091343;28;19919;-79
2022/10/14 02:39:12;;;;;;;;;;;16.20;99.90;;;;;;5104835;28;19919;-79
2022/10/14 02:41:44;;;;;;;;;;;16.30;99.90;;;;;;5071747;28;19974;-82
2022/10/14 02:44:19;;;;;;;;;;;16.20;99.90;;;;;;5088197;28;19982;-79
2022/10/14 02:46:47;;;;;;;;;;;16.30;99.90;;;;;;5089418;28;19908;-80
2022/10/14 02:49:14;;;;;;;;;;;16.30;99.90;;;;;;5089351;28;19908;-79
2022/10/14 02:51:39;;;;;;;;;;;16.20;99.90;;;;;;5088696;28;19912;-79
2022/10/14 02:54:05;;;;;;;;;;;16.30;99.90;;;;;;5088779;28;19919;-79
2022/10/14 02:56:31;;;;;;;;;;;16.20;99.90;;;;;;5088731;28;19908;-79
2022/10/14 02:59:02;;;;;;;;;;;16.20;99.90;;;;;;5088772;28;19909;-80
2022/10/14 03:01:28;;;;;;;;;;;16.20;99.90;;;;;;5085478;28;19908;-80
2022/10/14 03:03:54;;;;;;;;;;;16.20;99.90;;;;;;5084862;28;19935;-80
2022/10/14 03:06:19;;;;;;;;;;;16.20;99.90;;;;;;5085492;28;19909;-79
2022/10/14 03:08:45;;;;;;;;;;;16.30;99.90;;;;;;5068762;28;19923;-81
2022/10/14 03:11:11;;;;;;;;;;;16.30;99.90;;;;;;5089153;28;19943;-80
2022/10/14 03:13:37;;;;;;;;;;;16.30;99.90;;;;;;5090363;28;19908;-79
2022/10/14 03:16:02;;;;;;;;;;;16.30;99.90;;;;;;5087978;28;19909;-79
2022/10/14 03:18:31;;;;;;;;;;;16.30;99.90;;;;;;5069628;28;19916;-79
2022/10/14 03:20:57;;;;;;;;;;;16.20;99.90;;;;;;5087945;28;19934;-80
2022/10/14 03:23:23;;;;;;;;;;;16.20;99.90;;;;;;5087912;28;19913;-79
2022/10/14 03:25:48;;;;;;;;;;;16.20;99.90;;;;;;5088381;28;19913;-81
2022/10/14 03:28:14;;;;;;;;;;;16.20;99.90;;;;;;5088615;28;19913;-79
2022/10/14 03:30:40;;;;;;;;;;;16.20;99.90;;;;;;5088684;28;19908;-80
2022/10/14 03:33:09;;;;;;;;;;;16.10;99.90;;;;;;5089515;28;19976;-80
2022/10/14 03:35:35;;;;;;;;;;;16.10;99.90;;;;;;5108811;28;19908;-80
2022/10/14 03:38:02;;;;;;;;;;;16.20;99.90;;;;;;5109096;28;19939;-79
2022/10/14 03:40:28;;;;;;;;;;;16.20;99.90;;;;;;5108544;28;19985;-79
2022/10/14 03:42:56;;;;;;;;;;;16.10;99.90;;;;;;5107755;28;20002;-80
2022/10/14 03:45:22;;;;;;;;;;;16.10;99.90;;;;;;5104234;28;19922;-79
2022/10/14 03:47:47;;;;;;;;;;;16.10;99.90;;;;;;5094440;28;19908;-79
2022/10/14 03:50:13;;;;;;;;;;;16.10;99.90;;;;;;5084940;28;19915;-80
2022/10/14 03:52:42;;;;;;;;;;;16.00;99.90;;;;;;5083972;28;19917;-80
2022/10/14 03:55:07;;;;;;;;;;;16.10;99.90;;;;;;5067165;28;19934;-80
2022/10/14 03:57:36;;;;;;;;;;;16.00;99.90;;;;;;5083798;28;19912;-80
2022/10/14 04:00:03;;;;;;;;;;;16.00;99.90;;;;;;5084255;28;20001;-80
2022/10/14 04:02:29;;;;;;;;;;;16.10;99.90;;;;;;5084436;28;19924;-80
2022/10/14 04:04:57;;;;;;;;;;;16.10;99.90;;;;;;5084592;28;19908;-80
2022/10/14 04:07:26;;;;;;;;;;;16.00;99.90;;;;;;5085351;28;19995;-80
2022/10/14 04:09:54;;;;;;;;;;;16.10;99.90;;;;;;5083897;28;19995;-80
2022/10/14 04:12:20;;;;;;;;;;;16.10;99.90;;;;;;5083900;28;19916;-80
2022/10/14 04:14:49;;;;;;;;;;;16.10;99.90;;;;;;5084311;28;19930;-79
2022/10/14 04:17:15;;;;;;;;;;;16.00;99.90;;;;;;5083476;28;19912;-79
2022/10/14 04:19:40;;;;;;;;;;;16.00;99.90;;;;;;5083437;28;19908;-80
2022/10/14 04:22:06;;;;;;;;;;;15.90;99.90;;;;;;5082838;28;19923;-80
2022/10/14 04:24:32;;;;;;;;;;;15.90;99.90;;;;;;5066874;28;20320;-80
2022/10/14 04:27:01;;;;;;;;;;;15.90;99.90;;;;;;5065331;28;20026;-79
2022/10/14 04:29:26;;;;;;;;;;;15.80;99.90;;;;;;5065899;28;19975;-80
2022/10/14 04:31:52;;;;;;;;;;;15.80;99.90;;;;;;5083832;28;19912;-80
2022/10/14 04:34:21;;;;;;;;;;;15.80;99.90;;;;;;5094409;28;19948;-80
2022/10/14 04:36:50;;;;;;;;;;;15.80;99.90;;;;;;5103889;28;19908;-79
2022/10/14 04:39:16;;;;;;;;;;;15.80;99.90;;;;;;5088817;28;19908;-80
2022/10/14 04:41:41;;;;;;;;;;;15.80;99.90;;;;;;5065203;28;19958;-80
2022/10/14 04:44:07;;;;;;;;;;;15.80;99.90;;;;;;5083449;28;20004;-80
2022/10/14 04:46:38;;;;;;;;;;;15.70;99.90;;;;;;5064609;28;19912;-79
2022/10/14 04:49:04;;;;;;;;;;;15.70;99.90;;;;;;5083724;28;20011;-80
2022/10/14 04:51:30;;;;;;;;;;;15.80;99.90;;;;;;5083431;28;19916;-80
2022/10/14 04:54:01;;;;;;;;;;;15.70;99.90;;;;;;5065057;28;19908;-79
2022/10/14 04:56:27;;;;;;;;;;;15.70;99.90;;;;;;5082592;28;19909;-79
2022/10/14 04:58:53;;;;;;;;;;;15.70;99.90;;;;;;5064870;28;19909;-79
2022/10/14 05:01:19;;;;;;;;;;;15.70;99.90;;;;;;5082775;28;19912;-80
2022/10/14 05:03:45;;;;;;;;;;;15.70;99.90;;;;;;5064959;28;19912;-80
2022/10/14 05:06:10;;;;;;;;;;;15.70;99.90;;;;;;5083898;28;19912;-80
2022/10/14 05:08:36;;;;;;;;;;;15.70;99.90;;;;;;5092458;28;20413;-80
2022/10/14 05:11:02;;;;;;;;;;;15.70;99.90;;;;;;5074517;28;19912;-80
2022/10/14 05:13:31;;;;;;;;;;;15.70;99.90;;;;;;5074577;28;19896;-79
2022/10/14 05:15:57;;;;;;;;;;;15.70;99.90;;;;;;5096574;28;19908;-80
2022/10/14 05:18:23;;;;;;;;;;;15.60;99.90;;;;;;5077262;28;20291;-79
2022/10/14 05:20:49;;;;;;;;;;;15.60;99.90;;;;;;5091889;28;19923;-80
2022/10/14 05:23:15;;;;;;;;;;;15.60;99.90;;;;;;5071538;28;20019;-81
2022/10/14 05:25:41;;;;;;;;;;;15.70;99.90;;;;;;5071297;28;19909;-82
2022/10/14 05:28:07;;;;;;;;;;;15.70;99.90;;;;;;5071659;28;19908;-81
2022/10/14 05:30:38;;;;;;;;;;;15.60;99.90;;;;;;5087740;28;20319;-79
2022/10/14 05:33:04;;;;;;;;;;;15.60;99.90;;;;;;5092535;28;19947;-80
2022/10/14 05:35:30;;;;;;;;;;;15.60;99.90;;;;;;5111357;28;19908;-81
2022/10/14 05:37:56;;;;;;;;;;;15.70;99.90;;;;;;5099330;28;19908;-75
2022/10/14 05:40:22;;;;;;;;;;;15.70;99.90;;;;;;5083571;28;19940;-79
2022/10/14 05:42:48;;;;;;;;;;;15.70;99.90;;;;;;5055282;28;19913;-78
2022/10/14 05:45:13;;;;;;;;;;;15.80;99.90;;;;;;5079113;28;19961;-78
2022/10/14 05:47:42;;;;;;;;;;;15.80;99.90;;;;;;5079250;28;20365;-77
2022/10/14 05:50:07;;;;;;;;;;;15.80;99.90;;;;;;5078150;28;19940;-80
2022/10/14 05:52:34;;;;;;;;;;;15.80;99.90;;;;;;5059845;28;19913;-77
2022/10/14 05:55:00;;;;;;;;;;;15.90;99.90;;;;;;5077957;28;19948;-80
2022/10/14 05:57:29;;;;;;;;;;;16.00;99.90;;;;;;5081696;28;19957;-77
2022/10/14 05:59:54;;;;;;;;;;;16.00;99.90;;;;;;5057012;28;19948;-77
2022/10/14 06:02:22;;;;;;;;;;;16.00;99.90;;;;;;5075610;28;19928;-77
2022/10/14 06:04:48;;;;;;;;;;;16.00;99.90;;;;;;5074750;28;19999;-77
2022/10/14 06:07:15;;;;;;;;;;;16.00;99.90;;;;;;5059367;28;19963;-78
2022/10/14 06:09:40;;;;;;;;;;;16.00;99.90;;;;;;5081715;28;19912;-77
2022/10/14 06:12:06;;;;;;;;;;;16.10;99.90;;;;;;5079715;28;20003;-79
2022/10/14 06:14:32;;;;;;;;;;;16.10;99.90;;;;;;5074230;28;19980;-77
2022/10/14 06:16:57;;;;;;;;;;;16.20;99.90;;;;;;5078119;28;20286;-78
2022/10/14 06:19:23;;;;;;;;;;;16.20;99.90;;;;;;5074807;28;19908;-78
2022/10/14 06:21:49;;;;;;;;;;;16.20;99.90;;;;;;5081540;28;19920;-78
2022/10/14 06:24:14;;;;;;;;;;;16.20;99.90;;;;;;5078466;28;19995;-77
2022/10/14 06:26:40;;;;;;;;;;;16.30;99.90;;;;;;5067297;28;19913;-76
2022/10/14 06:29:06;;;;;;;;;;;16.30;99.90;;;;;;5060897;28;19909;-78
2022/10/14 06:31:32;;;;;;;;;;;16.30;99.90;;;;;;5058496;28;19973;-78
2022/10/14 06:33:57;;;;;;;;;;;16.40;99.90;;;;;;5075646;28;19915;-77
2022/10/14 06:36:23;;;;;;;;;;;16.40;99.90;;;;;;5075474;28;19931;-77
2022/10/14 06:38:48;;;;;;;;;;;16.50;99.90;;;;;;5075148;28;19912;-76
2022/10/14 06:41:17;;;;;;;;;;;16.60;99.90;;;;;;5056471;28;19939;-77
2022/10/14 06:43:43;;;;;;;;;;;16.70;99.90;;;;;;5056820;28;19920;-78
2022/10/14 06:46:08;;;;;;;;;;;16.70;99.90;;;;;;5074720;28;20317;-77
2022/10/14 06:48:34;;;;;;;;;;;16.80;99.90;;;;;;5055748;28;20060;-77
2022/10/14 06:51:00;;;;;;;;;;;16.80;99.90;;;;;;5054537;28;19912;-77
2022/10/14 06:53:27;;;;;;;;;;;16.80;99.90;;;;;;5075426;28;19963;-77
2022/10/14 06:56:00;;;;;;;;;;;16.80;99.90;;;;;;5075454;28;19928;-77
2022/10/14 06:58:25;;;;;;;;;;;16.80;99.90;;;;;;5078457;28;19913;-77
2022/10/14 07:00:51;;;;;;;;;;;16.90;99.90;;;;;;5074690;28;19932;-77
2022/10/14 07:03:17;;;;;;;;;;;16.90;99.90;;;;;;5075188;28;19917;-76
2022/10/14 07:05:43;;;;;;;;;;;16.90;99.90;;;;;;5062256;28;20338;-76
2022/10/14 07:08:08;;;;;;;;;;;17.00;99.90;;;;;;5074208;28;19920;-78
2022/10/14 07:10:34;;;;;;;;;;;17.00;99.90;;;;;;5079661;28;19931;-76
2022/10/14 07:13:00;;;;;;;;;;;17.10;99.90;;;;;;5056870;28;19920;-77
2022/10/14 07:15:25;;;;;;;;;;;17.10;99.90;;;;;;5076351;28;20007;-77
2022/10/14 07:17:51;;;;;;;;;;;17.20;99.90;;;;;;5058650;28;19909;-76
2022/10/14 07:20:17;;;;;;;;;;;17.20;99.90;;;;;;5075745;28;20321;-76
2022/10/14 07:22:43;;;;;;;;;;;17.30;99.90;;;;;;5057318;28;19926;-76
2022/10/14 07:25:08;;;;;;;;;;;17.30;99.90;;;;;;5076337;28;19913;-76
2022/10/14 07:27:34;;;;;;;;;;;17.40;99.90;;;;;;5057430;28;20302;-76
2022/10/14 07:30:03;;;;;;;;;;;17.40;99.90;;;;;;5076268;28;20004;-76
2022/10/14 07:32:29;;;;;;;;;;;17.50;99.90;;;;;;5058658;28;19961;-78
2022/10/14 07:34:55;;;;;;;;;;;17.70;99.90;;;;;;5075681;28;19946;-76
2022/10/14 07:37:21;;;;;;;;;;;17.80;99.90;;;;;;5075663;28;20007;-77
2022/10/14 07:39:46;;;;;;;;;;;17.90;99.90;;;;;;5058233;28;19949;-76
2022/10/14 07:42:12;;;;;;;;;;;17.90;99.90;;;;;;5076206;28;19909;-76
2022/10/14 07:44:38;;;;;;;;;;;18.00;99.90;;;;;;5076029;28;19913;-76
2022/10/14 07:47:04;;;;;;;;;;;18.00;99.90;;;;;;5057560;28;19915;-78
2022/10/14 07:49:33;;;;;;;;;;;18.10;99.90;;;;;;5080710;28;19919;-76
2022/10/14 07:52:02;;;;;;;;;;;18.20;99.90;;;;;;5082505;28;20049;-77
2022/10/14 07:54:29;;;;;;;;;;;18.20;99.90;;;;;;5082369;28;19934;-77
2022/10/14 07:57:13;;;;;;;;;;;18.30;99.90;;;;;;5081854;28;19908;-77
2022/10/14 07:59:39;;;;;;;;;;;18.30;99.90;;;;;;5063607;28;19970;-77
2022/10/14 08:02:05;;;;;;;;;;;18.30;99.90;;;;;;5063376;28;20331;-78
2022/10/14 08:04:30;;;;;;;;;;;18.40;99.90;;;;;;5080595;28;20175;-78
2022/10/14 08:06:56;;;;;;;;;;;18.50;99.90;;;;;;5079670;28;19935;-77
2022/10/14 08:09:22;;;;;;;;;;;18.60;99.90;;;;;;5081624;28;19908;-77
2022/10/14 08:11:48;;;;;;;;;;;18.60;99.90;;;;;;5063633;28;19909;-80
2022/10/14 08:14:13;;;;;;;;;;;18.70;99.90;;;;;;5081792;28;19909;-77
2022/10/14 08:16:39;;;;;;;;;;;18.80;99.90;;;;;;5080738;28;19931;-77
2022/10/14 08:19:07;;;;;;;;;;;18.80;99.90;;;;;;5080501;28;19912;-78
2022/10/14 08:21:33;;;;;;;;;;;18.90;99.90;;;;;;5080972;28;19919;-77
2022/10/14 08:23:59;;;;;;;;;;;18.90;99.90;;;;;;5064452;28;19917;-78
2022/10/14 08:26:38;;;;;;;;;;;19.00;99.90;;;;;;5081506;28;19913;-77
2022/10/14 08:29:05;;;;;;;;;;;19.00;99.90;;;;;;5081174;28;19908;-77
2022/10/14 08:31:31;;;;;;;;;;;19.20;99.90;;;;;;5062831;28;20015;-77
2022/10/14 08:33:57;;;;;;;;;;;19.30;99.90;;;;;;5081170;28;19931;-77
2022/10/14 08:36:23;;;;;;;;;;;19.30;99.90;;;;;;5081659;28;19908;-77
2022/10/14 08:38:50;;;;;;;;;;;19.40;99.90;;;;;;5080464;28;19920;-78
2022/10/14 08:41:25;;;;;;;;;;;19.40;99.90;;;;;;5073208;28;19913;-79
2022/10/14 08:43:56;;;;;;;;;;;19.40;99.90;;;;;;5082839;28;19919;-77
2022/10/14 08:46:24;;;;;;;;;;;19.60;99.90;;;;;;5085074;28;19973;-77
2022/10/14 08:48:53;;;;;;;;;;;19.70;99.90;;;;;;5084954;28;19918;-79
2022/10/14 08:51:20;;;;;;;;;;;19.80;99.90;;;;;;5066715;28;19976;-77
2022/10/14 08:53:48;;;;;;;;;;;19.70;99.90;;;;;;5083589;28;19936;-77
2022/10/14 08:56:14;;;;;;;;;;;19.70;99.90;;;;;;5084603;28;19917;-77
2022/10/14 08:58:42;;;;;;;;;;;19.70;99.90;;;;;;5066025;28;19953;-77
2022/10/14 09:01:15;;;;;;;;;;;19.80;99.90;;;;;;5084751;28;19936;-78
2022/10/14 09:03:44;;;;;;;;;;;19.80;99.90;;;;;;5067043;28;19939;-78
2022/10/14 09:06:29;;;;;;;;;;;19.90;99.90;;;;;;5083813;28;19913;-77
2022/10/14 09:08:56;;;;;;;;;;;20.10;99.90;;;;;;5084920;28;19960;-77
2022/10/14 09:11:23;;;;;;;;;;;20.30;99.90;;;;;;5083093;28;19908;-78
2022/10/14 09:13:50;;;;;;;;;;;20.20;99.90;;;;;;5083923;28;19916;-78
2022/10/14 09:16:20;;;;;;;;;;;20.10;99.90;;;;;;5084219;28;19908;-78
2022/10/14 09:18:58;;;;;;;;;;;20.10;99.90;;;;;;5083878;28;19978;-77
2022/10/14 09:21:34;;;;;;;;;;;20.30;99.90;;;;;;5066074;28;19915;-77
2022/10/14 09:24:15;;;;;;;;;;;20.40;99.90;;;;;;5083979;28;19912;-77
2022/10/14 09:26:42;;;;;;;;;;;20.40;99.90;;;;;;5083089;28;19909;-79
2022/10/14 09:29:27;;;;;;;;;;;20.50;99.90;;;;;;5082969;28;19955;-78
2022/10/14 09:31:56;;;;;;;;;;;20.40;99.90;;;;;;5066128;28;19939;-77
2022/10/14 09:34:48;;;;;;;;;;;20.40;99.90;;;;;;5083138;28;19931;-78
2022/10/14 09:37:14;;;;;;;;;;;20.50;99.90;;;;;;5063906;28;19919;-77
2022/10/14 09:39:40;;;;;;;;;;;20.60;99.90;;;;;;5083253;28;19944;-78
2022/10/14 09:42:12;;;;;;;;;;;20.80;99.90;;;;;;5082662;28;19908;-77
2022/10/14 09:44:38;;;;;;;;;;;20.80;99.90;;;;;;5082703;28;19916;-77
2022/10/14 09:47:04;;;;;;;;;;;20.70;99.90;;;;;;5083259;28;19931;-78
2022/10/14 09:49:40;;;;;;;;;;;20.70;99.90;;;;;;5065248;28;20392;-77
2022/10/14 09:52:06;;;;;;;;;;;20.60;99.90;;;;;;5083300;28;20373;-79
2022/10/14 09:54:32;;;;;;;;;;;20.80;99.90;;;;;;5081390;28;19908;-77
2022/10/14 09:57:15;;;;;;;;;;;20.90;99.90;;;;;;5083685;28;19952;-78
2022/10/14 09:59:52;;;;;;;;;;;20.90;99.90;;;;;;5065320;28;20350;-77
2022/10/14 10:02:23;;;;;;;;;;;20.90;99.90;;;;;;5083706;28;19909;-79
2022/10/14 10:04:49;;;;;;;;;;;21.00;99.90;;;;;;5082221;28;19916;-77
2022/10/14 10:07:29;;;;;;;;;;;21.00;99.90;;;;;;5084294;28;19921;-77
2022/10/14 10:09:55;;;;;;;;;;;21.00;99.90;;;;;;5082934;28;19909;-79
2022/10/14 10:12:22;;;;;;;;;;;21.10;99.90;;;;;;5083030;28;19908;-78
2022/10/14 10:14:56;;;;;;;;;;;21.20;99.90;;;;;;5082152;28;19913;-77
2022/10/14 10:17:22;;;;;;;;;;;21.30;99.90;;;;;;5067000;28;19923;-77
2022/10/14 10:19:50;;;;;;;;;;;21.20;99.90;;;;;;5081507;28;20242;-77
2022/10/14 10:22:20;;;;;;;;;;;21.10;99.90;;;;;;5064314;28;19935;-77
2022/10/14 10:24:46;;;;;;;;;;;21.20;99.90;;;;;;5081560;28;19919;-78
2022/10/14 10:27:25;;;;;;;;;;;21.20;99.90;;;;;;5083435;28;19916;-78
2022/10/14 10:29:51;;;;;;;;;;;21.30;99.90;;;;;;5069578;28;19980;-78
2022/10/14 10:32:17;;;;;;;;;;;21.30;99.90;;;;;;5064572;28;20194;-77
2022/10/14 10:35:04;;;;;;;;;;;21.30;99.90;;;;;;5067762;28;19912;-80
2022/10/14 10:37:30;;;;;;;;;;;21.30;99.90;;;;;;5051755;28;19964;-78
2022/10/14 10:40:11;;;;;;;;;;;21.40;99.90;;;;;;5082849;28;19909;-80
2022/10/14 10:43:01;;;;;;;;;;;21.50;99.90;;;;;;5083716;28;19912;-79
2022/10/14 10:45:42;;;;;;;;;;;21.60;99.90;;;;;;5083245;28;20416;-78
2022/10/14 10:48:10;;;;;;;;;;;21.70;99.90;;;;;;5090037;28;19976;-79
2022/10/14 10:50:36;;;;;;;;;;;21.80;99.90;;;;;;5083198;28;19912;-79
2022/10/14 10:53:08;;;;;;;;;;;21.70;99.90;;;;;;5065387;28;19944;-78
2022/10/14 10:55:53;;;;;;;;;;;21.70;99.90;;;;;;5083383;28;19924;-78
2022/10/14 10:58:27;;;;;;;;;;;21.80;99.90;;;;;;5067070;28;19915;-77
2022/10/14 11:00:53;;;;;;;;;;;21.80;99.90;;;;;;5066318;28;19916;-77
2022/10/14 11:03:37;;;;;;;;;;;21.90;99.90;;;;;;5082320;28;19920;-78
2022/10/14 11:06:09;;;;;;;;;;;22.10;99.90;;;;;;5083349;28;19958;-78
2022/10/14 11:12:13;;;;;;;;;;;22.10;99.90;;;;;;5079894;28;19938;-78
2022/10/14 11:14:58;;;;;;;;;;;22.10;99.90;;;;;;5019650;28;19917;-78
2022/10/14 11:17:23;;;;;;;;;;;22.10;99.90;;;;;;5034762;28;19913;-77
2022/10/14 11:19:53;;;;;;;;;;;22.10;99.90;;;;;;5063708;28;19920;-76
2022/10/14 11:22:31;;;;;;;;;;;22.10;99.90;;;;;;5068439;28;19920;-78
2022/10/14 11:24:59;;;;;;;;;;;22.20;99.90;;;;;;5087339;28;19930;-78
2022/10/14 11:28:01;;;;;;;;;;;22.20;99.90;;;;;;5066084;28;19976;-77
2022/10/14 11:30:30;;;;;;;;;;;22.00;99.90;;;;;;5013689;28;20293;-77
2022/10/14 11:32:55;;;;;;;;;;;21.70;99.90;;;;;;5071062;28;19909;-79
2022/10/14 11:35:27;;;;;;;;;;;21.50;99.90;;;;;;5063142;28;19934;-78
2022/10/14 11:37:53;;;;;;;;;;;21.20;99.90;;;;;;5080919;28;19915;-77
2022/10/14 11:40:20;;;;;;;;;;;21.10;99.90;;;;;;5065299;28;19932;-77
2022/10/14 11:42:51;;;;;;;;;;;21.00;99.90;;;;;;5083292;28;19913;-77
2022/10/14 11:45:26;;;;;;;;;;;20.80;99.90;;;;;;5064713;28;19917;-77
2022/10/14 11:47:53;;;;;;;;;;;20.70;99.90;;;;;;5082449;28;19916;-78
2022/10/14 11:50:30;;;;;;;;;;;20.70;99.90;;;;;;5081106;28;19912;-77
2022/10/14 11:53:00;;;;;;;;;;;20.70;99.90;;;;;;5067128;28;19919;-77
2022/10/14 11:55:29;;;;;;;;;;;20.60;99.90;;;;;;5080990;28;19973;-77
2022/10/14 11:58:09;;;;;;;;;;;20.60;99.90;;;;;;5084400;28;20367;-77
2022/10/14 12:00:35;;;;;;;;;;;20.70;99.90;;;;;;5081726;28;19914;-77
2022/10/14 12:03:08;;;;;;;;;;;20.60;99.90;;;;;;5062657;28;19916;-77
2022/10/14 12:05:37;;;;;;;;;;;20.70;99.90;;;;;;5067206;28;20358;-77
2022/10/14 12:08:03;;;;;;;;;;;20.80;99.90;;;;;;5082594;28;19965;-76
2022/10/14 12:10:32;;;;;;;;;;;20.90;99.90;;;;;;5081430;28;19948;-77
2022/10/14 12:12:59;;;;;;;;;;;20.90;99.90;;;;;;5084444;28;19913;-75
2022/10/14 12:15:25;;;;;;;;;;;20.80;99.90;;;;;;5087666;28;19938;-77
2022/10/14 12:18:00;;;;;;;;;;;20.70;99.90;;;;;;5079942;28;19966;-76
2022/10/14 12:20:36;;;;;;;;;;;20.70;99.90;;;;;;5082229;28;20075;-77
2022/10/14 12:23:04;;;;;;;;;;;20.80;99.90;;;;;;5082838;28;20431;-76
2022/10/14 12:25:35;;;;;;;;;;;20.80;99.90;;;;;;5083180;28;19916;-77
2022/10/14 12:28:01;;;;;;;;;;;20.90;99.90;;;;;;5062300;28;19908;-76
2022/10/14 12:30:30;;;;;;;;;;;21.00;99.90;;;;;;5076831;28;19913;-76
2022/10/14 12:33:11;;;;;;;;;;;21.10;99.90;;;;;;5081275;28;19995;-75
2022/10/14 12:35:45;;;;;;;;;;;21.20;99.90;;;;;;5078530;28;19918;-76
2022/10/14 12:38:11;;;;;;;;;;;21.20;99.90;;;;;;5080946;28;20254;-78
2022/10/14 12:40:38;;;;;;;;;;;21.10;99.90;;;;;;5063843;28;19912;-77
2022/10/14 12:43:16;;;;;;;;;;;21.00;99.90;;;;;;5078592;28;20020;-76
2022/10/14 12:45:54;;;;;;;;;;;21.10;99.90;;;;;;5078065;28;19913;-76
2022/10/14 12:48:24;;;;;;;;;;;21.10;99.90;;;;;;5061940;28;19913;-77
2022/10/14 12:50:53;;;;;;;;;;;21.10;99.90;;;;;;5079996;28;19922;-75
2022/10/14 12:53:24;;;;;;;;;;;21.10;99.90;;;;;;5080569;28;19917;-77
2022/10/14 12:55:52;;;;;;;;;;;20.90;99.90;;;;;;5082741;28;19919;-77
2022/10/14 12:58:26;;;;;;;;;;;20.70;99.90;;;;;;5087488;28;19920;-76
2022/10/14 13:00:53;;;;;;;;;;;20.70;99.90;;;;;;5062990;28;19935;-76
2022/10/14 13:03:22;;;;;;;;;;;20.90;99.90;;;;;;5080725;28;20062;-76
2022/10/14 13:05:48;;;;;;;;;;;20.90;99.90;;;;;;5080291;28;19916;-76
2022/10/14 13:08:23;;;;;;;;;;;21.10;99.90;;;;;;5080149;28;20439;-76
2022/10/14 13:10:49;;;;;;;;;;;21.20;99.90;;;;;;5084993;28;19927;-77
2022/10/14 13:13:33;;;;;;;;;;;21.10;99.90;;;;;;5087767;28;19928;-78
2022/10/14 13:15:59;;;;;;;;;;;21.00;99.90;;;;;;5069750;28;19940;-77
2022/10/14 13:18:33;;;;;;;;;;;21.10;99.90;;;;;;5073518;28;19919;-78
2022/10/14 13:20:58;;;;;;;;;;;21.10;99.90;;;;;;5093576;28;19912;-78
2022/10/14 13:23:36;;;;;;;;;;;21.10;99.90;;;;;;5091624;28;19917;-79
2022/10/14 13:26:21;;;;;;;;;;;21.10;99.90;;;;;;5088348;28;19909;-78
2022/10/14 13:28:55;;;;;;;;;;;21.10;99.90;;;;;;5089970;28;19919;-77
2022/10/14 13:31:30;;;;;;;;;;;21.10;99.90;;;;;;5082641;28;19909;-77
2022/10/14 13:34:11;;;;;;;;;;;21.20;99.90;;;;;;5084959;28;20460;-77
2022/10/14 13:36:42;;;;;;;;;;;21.30;99.90;;;;;;5071374;28;19908;-77
2022/10/14 13:39:08;;;;;;;;;;;21.10;99.90;;;;;;5088548;28;19913;-78
2022/10/14 13:41:36;;;;;;;;;;;21.00;99.90;;;;;;5087667;28;19951;-80
2022/10/14 13:44:02;;;;;;;;;;;20.90;99.90;;;;;;5091073;28;19916;-77
2022/10/14 13:46:37;;;;;;;;;;;20.80;99.90;;;;;;5089096;28;20366;-79
2022/10/14 13:49:04;;;;;;;;;;;20.80;99.90;;;;;;5079429;28;19992;-77
2022/10/14 13:51:53;;;;;;;;;;;20.80;99.90;;;;;;5075529;28;20309;-76
2022/10/14 13:54:23;;;;;;;;;;;20.90;99.90;;;;;;5067005;28;20449;-76
2022/10/14 13:56:59;;;;;;;;;;;20.90;99.90;;;;;;5086161;28;19913;-78
2022/10/14 13:59:25;;;;;;;;;;;20.80;99.90;;;;;;5072633;28;19932;-76
2022/10/14 14:02:00;;;;;;;;;;;20.60;99.90;;;;;;5084716;28;19963;-76
2022/10/14 14:04:35;;;;;;;;;;;20.70;99.90;;;;;;5087296;28;19916;-76
2022/10/14 14:07:25;;;;;;;;;;;;;;;;;;;;;
2022/10/14 14:09:55;;;;;;;;;;;20.80;99.90;;;;;;5076438;28;20003;-76
2022/10/14 14:12:21;;;;;;;;;;;21.00;99.90;;;;;;5090203;28;20438;-75
2022/10/14 14:14:47;;;;;;;;;;;20.90;99.90;;;;;;5082908;28;20404;-76
2022/10/14 14:17:15;;;;;;;;;;;21.00;99.90;;;;;;5086737;28;19960;-76
2022/10/14 14:22:45;;;;;;;;;;;21.00;99.90;;;;;;5075998;28;20004;-75
2022/10/14 14:25:20;;;;;;;;;;;20.80;99.90;;;;;;5076334;28;20316;-75
2022/10/14 14:30:51;;;;;;;;;;;20.70;99.90;;;;;;5075799;28;19923;-75
2022/10/14 14:33:18;;;;;;;;;;;20.60;99.90;;;;;;5061935;28;19912;-75
2022/10/14 14:36:12;;;;;;;;;;;20.60;99.90;;;;;;5079361;28;20078;-75
2022/10/14 14:38:44;;;;;;;;;;;20.60;99.90;;;;;;5084611;28;20317;-76
2022/10/14 14:41:24;;;;;;;;;;;20.70;99.90;;;;;;5060220;28;20362;-76